Savoonga, AK

10:37 PM AKST on February 05, 2016 (GMT -0900)
Savoonga | | Change Station
CLOSE
Current Station
Airport
Location: Savoonga,
Elevation: 52 ft
Nearby Weather Stations

Elev 52 ft 63.69 °N, 170.49 °W | Updated 1 minute ago

Clear
Clear
7 °F
Feels Like -2 °F
N
5
Wind Variable Wind from NE

Today
High -- | Low -- °F
--% Chance of Precip.
Yesterday
High -- | Low -- °F
Precip. -- in
Pressure 29.30 in
Visibility 10.0 miles
Clouds Clear
Windchill -2 °F
Dew Point 3 °F
Humidity 85%
Rainfall 0.00 in
Snow Depth Not available.
10:47 AM 6:25 PM
Waning Crescent, 7% visible
METAR PASA 060736Z AUTO 05004KT 10SM CLR M14/M16 A2930 RMK AO1
Pressure 29.30 in
Visibility 10.0 miles
Clouds Clear
Windchill -2 °F
Dew Point 3 °F
Humidity 85%
Rainfall 0.00 in
Snow Depth Not available.
10:47 AM 6:25 PM
Waning Crescent, 7% visible
METAR PASA 060736Z AUTO 05004KT 10SM CLR M14/M16 A2930 RMK AO1

10-Day Weather Forecast

Almanac

Astronomy

Feb. 05, 2016 Rise Set
Actual Time
Civil Twilight
Nautical Twilight
Astronomical Twilight
Moon
Length of Visible Light
Length of Day
Tomorrow will be .
, % of the Moon is Illuminated

Today's Extremes

State Highs State Lows

Community

WunderPhotos

Upload Photos

1,890,933 photos uploaded!

WunderBlog® & News

Nearby

Air Quality

  Air Quality AQ Index Pollutant
Not available.

Snow Depth

Station Depth Elevation

Earthquake Activity

City Distance Mag. Time & Date
Minimum magnitude displayed is 2.5.

Coastal Water Temperatures

Place Temperature

Stations

Nearby Weather Stations

Station Location Temp. Windchill Dew Point Humidity Wind Precip. Elev Updated Type
                   

Watches & Warnings

There are currently no watches in effect.